sensor_id;sensor_type;location;lat;lon;timestamp;pressure;altitude;pressure_sealevel;temperature;humidity
61014;BME280;46899;47.542;19.082;2023-12-20T00:01:28;100680.28;;;-1.47;100.00
61014;BME280;46899;47.542;19.082;2023-12-20T00:04:31;100683.31;;;-1.68;100.00
61014;BME280;46899;47.542;19.082;2023-12-20T00:07:34;100674.97;;;-1.59;100.00
61014;BME280;46899;47.542;19.082;2023-12-20T00:10:37;100674.06;;;-1.61;100.00
61014;BME280;46899;47.542;19.082;2023-12-20T00:13:39;100671.84;;;-1.45;100.00
61014;BME280;46899;47.542;19.082;2023-12-20T00:16:42;100663.28;;;-1.47;100.00
61014;BME280;46899;47.542;19.082;2023-12-20T00:19:45;100652.06;;;-1.56;100.00
61014;BME280;46899;47.542;19.082;2023-12-20T00:22:48;100648.84;;;-1.46;100.00
61014;BME280;46899;47.542;19.082;2023-12-20T00:25:51;100648.94;;;-1.40;100.00
61014;BME280;46899;47.542;19.082;2023-12-20T00:28:54;100644.56;;;-1.49;100.00
61014;BME280;46899;47.542;19.082;2023-12-20T00:31:56;100640.94;;;-1.60;100.00
61014;BME280;46899;47.542;19.082;2023-12-20T00:34:59;100640.03;;;-1.62;100.00
61014;BME280;46899;47.542;19.082;2023-12-20T00:38:02;100630.72;;;-1.60;100.00
61014;BME280;46899;47.542;19.082;2023-12-20T00:41:05;100627.44;;;-1.54;100.00
61014;BME280;46899;47.542;19.082;2023-12-20T00:44:07;100629.03;;;-1.61;100.00
61014;BME280;46899;47.542;19.082;2023-12-20T00:47:10;100605.22;;;-1.60;100.00
61014;BME280;46899;47.542;19.082;2023-12-20T00:50:13;100606.00;;;-1.64;100.00
61014;BME280;46899;47.542;19.082;2023-12-20T00:53:17;100604.28;;;-1.65;100.00
61014;BME280;46899;47.542;19.082;2023-12-20T00:56:20;100585.59;;;-1.64;100.00
61014;BME280;46899;47.542;19.082;2023-12-20T00:59:22;100591.72;;;-1.56;100.00
61014;BME280;46899;47.542;19.082;2023-12-20T01:02:25;100594.28;;;-1.54;100.00
61014;BME280;46899;47.542;19.082;2023-12-20T01:05:28;100595.09;;;-1.57;100.00
61014;BME280;46899;47.542;19.082;2023-12-20T01:08:31;100594.38;;;-1.48;100.00
61014;BME280;46899;47.542;19.082;2023-12-20T01:11:33;100587.69;;;-1.42;100.00
61014;BME280;46899;47.542;19.082;2023-12-20T01:14:36;100589.47;;;-1.36;100.00
61014;BME280;46899;47.542;19.082;2023-12-20T01:17:39;100593.84;;;-1.29;100.00
61014;BME280;46899;47.542;19.082;2023-12-20T01:20:42;100581.91;;;-1.31;100.00
61014;BME280;46899;47.542;19.082;2023-12-20T01:23:45;100580.06;;;-1.42;100.00
61014;BME280;46899;47.542;19.082;2023-12-20T01:26:48;100576.09;;;-1.23;100.00
61014;BME280;46899;47.542;19.082;2023-12-20T01:29:51;100575.16;;;-1.28;100.00
61014;BME280;46899;47.542;19.082;2023-12-20T01:32:53;100567.38;;;-1.34;100.00
61014;BME280;46899;47.542;19.082;2023-12-20T01:35:57;100556.97;;;-1.48;100.00
61014;BME280;46899;47.542;19.082;2023-12-20T01:38:59;100553.53;;;-1.51;100.00
61014;BME280;46899;47.542;19.082;2023-12-20T01:42:03;100549.31;;;-1.48;100.00
61014;BME280;46899;47.542;19.082;2023-12-20T01:45:05;100538.16;;;-1.53;100.00
61014;BME280;46899;47.542;19.082;2023-12-20T01:48:08;100534.00;;;-1.48;100.00
61014;BME280;46899;47.542;19.082;2023-12-20T01:51:12;100527.22;;;-1.49;100.00
61014;BME280;46899;47.542;19.082;2023-12-20T01:54:16;100523.00;;;-1.44;100.00
61014;BME280;46899;47.542;19.082;2023-12-20T01:57:18;100524.75;;;-1.43;100.00
61014;BME280;46899;47.542;19.082;2023-12-20T02:00:22;100511.06;;;-1.48;100.00
61014;BME280;46899;47.542;19.082;2023-12-20T02:03:26;100500.88;;;-1.46;100.00
61014;BME280;46899;47.542;19.082;2023-12-20T02:06:29;100492.31;;;-1.48;100.00
61014;BME280;46899;47.542;19.082;2023-12-20T02:09:32;100487.38;;;-1.39;100.00
61014;BME280;46899;47.542;19.082;2023-12-20T02:12:35;100481.28;;;-1.49;100.00
61014;BME280;46899;47.542;19.082;2023-12-20T02:15:38;100471.91;;;-1.48;100.00
61014;BME280;46899;47.542;19.082;2023-12-20T02:18:42;100465.25;;;-1.40;100.00
61014;BME280;46899;47.542;19.082;2023-12-20T02:21:45;100458.53;;;-1.33;100.00
61014;BME280;46899;47.542;19.082;2023-12-20T02:24:48;100452.47;;;-1.42;100.00
61014;BME280;46899;47.542;19.082;2023-12-20T02:27:50;100447.31;;;-1.45;100.00
61014;BME280;46899;47.542;19.082;2023-12-20T02:30:54;100443.16;;;-1.38;100.00
61014;BME280;46899;47.542;19.082;2023-12-20T02:33:56;100446.56;;;-1.39;100.00
61014;BME280;46899;47.542;19.082;2023-12-20T02:36:59;100439.00;;;-1.31;100.00
61014;BME280;46899;47.542;19.082;2023-12-20T02:40:02;100447.56;;;-1.26;100.00
61014;BME280;46899;47.542;19.082;2023-12-20T02:43:08;100443.22;;;-1.35;100.00
61014;BME280;46899;47.542;19.082;2023-12-20T02:46:11;100433.03;;;-1.33;100.00
61014;BME280;46899;47.542;19.082;2023-12-20T02:49:15;100421.94;;;-1.35;100.00
61014;BME280;46899;47.542;19.082;2023-12-20T02:52:17;100427.09;;;-1.29;100.00
61014;BME280;46899;47.542;19.082;2023-12-20T02:55:20;100417.75;;;-1.30;100.00
61014;BME280;46899;47.542;19.082;2023-12-20T02:58:23;100412.59;;;-1.33;100.00
61014;BME280;46899;47.542;19.082;2023-12-20T03:01:26;100414.44;;;-1.25;100.00
61014;BME280;46899;47.542;19.082;2023-12-20T03:04:29;100417.06;;;-1.20;100.00
61014;BME280;46899;47.542;19.082;2023-12-20T03:07:33;100411.91;;;-1.23;100.00
61014;BME280;46899;47.542;19.082;2023-12-20T03:10:35;100410.22;;;-1.21;100.00
61014;BME280;46899;47.542;19.082;2023-12-20T03:13:38;100411.03;;;-1.24;100.00
61014;BME280;46899;47.542;19.082;2023-12-20T03:16:41;100408.59;;;-1.15;100.00
61014;BME280;46899;47.542;19.082;2023-12-20T03:19:46;100411.94;;;-1.20;100.00
61014;BME280;46899;47.542;19.082;2023-12-20T03:22:48;100419.66;;;-1.14;100.00
61014;BME280;46899;47.542;19.082;2023-12-20T03:25:51;100417.19;;;-1.08;100.00
61014;BME280;46899;47.542;19.082;2023-12-20T03:28:54;100415.53;;;-1.06;100.00
61014;BME280;46899;47.542;19.082;2023-12-20T03:31:57;100410.37;;;-1.09;100.00
61014;BME280;46899;47.542;19.082;2023-12-20T03:34:59;100415.59;;;-1.02;100.00
61014;BME280;46899;47.542;19.082;2023-12-20T03:38:02;100422.38;;;-1.02;100.00
61014;BME280;46899;47.542;19.082;2023-12-20T03:41:05;100417.22;;;-1.07;100.00
61014;BME280;46899;47.542;19.082;2023-12-20T03:44:07;100415.50;;;-1.08;100.00
61014;BME280;46899;47.542;19.082;2023-12-20T03:47:10;100411.41;;;-0.95;100.00
61014;BME280;46899;47.542;19.082;2023-12-20T03:50:12;100417.22;;;-1.05;100.00
61014;BME280;46899;47.542;19.082;2023-12-20T03:53:15;100409.63;;;-1.01;100.00
61014;BME280;46899;47.542;19.082;2023-12-20T03:56:18;100410.44;;;-1.06;100.00
61014;BME280;46899;47.542;19.082;2023-12-20T03:59:20;100403.59;;;-1.07;100.00
61014;BME280;46899;47.542;19.082;2023-12-20T04:02:23;100394.25;;;-1.07;100.00
61014;BME280;46899;47.542;19.082;2023-12-20T04:05:26;100400.94;;;-1.18;100.00
61014;BME280;46899;47.542;19.082;2023-12-20T04:08:29;100399.97;;;-1.24;100.00
61014;BME280;46899;47.542;19.082;2023-12-20T04:11:31;100397.53;;;-1.15;100.00
61014;BME280;46899;47.542;19.082;2023-12-20T04:14:34;100398.28;;;-1.22;100.00
61014;BME280;46899;47.542;19.082;2023-12-20T04:17:37;100395.06;;;-1.08;100.00
61014;BME280;46899;47.542;19.082;2023-12-20T04:20:40;100400.13;;;-1.12;100.00
61014;BME280;46899;47.542;19.082;2023-12-20T04:23:43;100390.88;;;-1.04;100.00
61014;BME280;46899;47.542;19.082;2023-12-20T04:26:46;100379.69;;;-1.14;100.00
61014;BME280;46899;47.542;19.082;2023-12-20T04:29:49;100375.25;;;-1.27;100.00
61014;BME280;46899;47.542;19.082;2023-12-20T04:32:51;100373.41;;;-1.39;100.00
61014;BME280;46899;47.542;19.082;2023-12-20T04:35:54;100365.00;;;-1.33;100.00
61014;BME280;46899;47.542;19.082;2023-12-20T04:38:57;100359.88;;;-1.33;100.00
61014;BME280;46899;47.542;19.082;2023-12-20T04:42:00;100365.84;;;-1.32;100.00
61014;BME280;46899;47.542;19.082;2023-12-20T04:45:02;100356.41;;;-1.40;100.00
61014;BME280;46899;47.542;19.082;2023-12-20T04:48:05;100343.59;;;-1.43;100.00
61014;BME280;46899;47.542;19.082;2023-12-20T04:51:08;100326.66;;;-1.39;100.00
61014;BME280;46899;47.542;19.082;2023-12-20T04:54:11;100318.03;;;-1.49;100.00
61014;BME280;46899;47.542;19.082;2023-12-20T04:57:14;100318.91;;;-1.47;100.00
61014;BME280;46899;47.542;19.082;2023-12-20T05:00:17;100308.66;;;-1.48;100.00
61014;BME280;46899;47.542;19.082;2023-12-20T05:03:19;100312.09;;;-1.46;100.00
61014;BME280;46899;47.542;19.082;2023-12-20T05:06:22;100301.00;;;-1.50;100.00
61014;BME280;46899;47.542;19.082;2023-12-20T05:09:25;100306.97;;;-1.48;100.00
61014;BME280;46899;47.542;19.082;2023-12-20T05:12:28;100292.62;;;-1.40;100.00
61014;BME280;46899;47.542;19.082;2023-12-20T05:15:30;100295.28;;;-1.29;100.00
61014;BME280;46899;47.542;19.082;2023-12-20T05:18:33;100294.25;;;-1.43;100.00
61014;BME280;46899;47.542;19.082;2023-12-20T05:21:36;100291.75;;;-1.39;100.00
61014;BME280;46899;47.542;19.082;2023-12-20T05:24:39;100288.41;;;-1.36;100.00
61014;BME280;46899;47.542;19.082;2023-12-20T05:27:42;100284.13;;;-1.39;100.00
61014;BME280;46899;47.542;19.082;2023-12-20T05:30:45;100292.72;;;-1.32;100.00
61014;BME280;46899;47.542;19.082;2023-12-20T05:33:47;100300.28;;;-1.37;100.00
61014;BME280;46899;47.542;19.082;2023-12-20T05:36:50;100309.72;;;-1.32;100.00
61014;BME280;46899;47.542;19.082;2023-12-20T05:39:53;100308.22;;;-1.12;100.00
61014;BME280;46899;47.542;19.082;2023-12-20T05:42:55;100301.25;;;-1.27;100.00
61014;BME280;46899;47.542;19.082;2023-12-20T05:45:58;100291.00;;;-1.31;100.00
61014;BME280;46899;47.542;19.082;2023-12-20T05:49:01;100278.34;;;-1.22;100.00
61014;BME280;46899;47.542;19.082;2023-12-20T05:52:04;100278.34;;;-1.22;100.00
61014;BME280;46899;47.542;19.082;2023-12-20T05:55:06;100271.63;;;-1.16;100.00
61014;BME280;46899;47.542;19.082;2023-12-20T05:58:09;100267.34;;;-1.18;100.00
61014;BME280;46899;47.542;19.082;2023-12-20T06:01:13;100269.03;;;-1.19;100.00
61014;BME280;46899;47.542;19.082;2023-12-20T06:04:16;100260.59;;;-1.13;100.00
61014;BME280;46899;47.542;19.082;2023-12-20T06:07:21;100253.81;;;-1.11;100.00
61014;BME280;46899;47.542;19.082;2023-12-20T06:10:24;100255.53;;;-1.09;100.00
61014;BME280;46899;47.542;19.082;2023-12-20T06:13:26;100259.78;;;-1.09;100.00
61014;BME280;46899;47.542;19.082;2023-12-20T06:16:29;100251.31;;;-1.07;100.00
61014;BME280;46899;47.542;19.082;2023-12-20T06:19:32;100258.88;;;-1.14;100.00
61014;BME280;46899;47.542;19.082;2023-12-20T06:22:35;100263.09;;;-1.18;100.00
61014;BME280;46899;47.542;19.082;2023-12-20T06:25:38;100255.38;;;-1.25;100.00
61014;BME280;46899;47.542;19.082;2023-12-20T06:28:41;100258.78;;;-1.23;100.00
61014;BME280;46899;47.542;19.082;2023-12-20T06:31:44;100253.78;;;-1.14;100.00
61014;BME280;46899;47.542;19.082;2023-12-20T06:34:47;100252.81;;;-1.24;100.00
61014;BME280;46899;47.542;19.082;2023-12-20T06:37:50;100270.75;;;-1.18;100.00
61014;BME280;46899;47.542;19.082;2023-12-20T06:40:53;100277.47;;;-1.24;100.00
61014;BME280;46899;47.542;19.082;2023-12-20T06:43:55;100292.88;;;-1.18;100.00
61014;BME280;46899;47.542;19.082;2023-12-20T06:46:59;100295.47;;;-1.12;100.00
61014;BME280;46899;47.542;19.082;2023-12-20T06:50:01;100303.12;;;-1.14;100.00
61014;BME280;46899;47.542;19.082;2023-12-20T06:53:04;100305.69;;;-1.12;100.00
61014;BME280;46899;47.542;19.082;2023-12-20T06:56:10;100321.97;;;-1.03;100.00
61014;BME280;46899;47.542;19.082;2023-12-20T06:59:16;100322.03;;;-0.95;100.00
61014;BME280;46899;47.542;19.082;2023-12-20T07:02:18;100311.84;;;-0.94;100.00
61014;BME280;46899;47.542;19.082;2023-12-20T07:05:21;100318.59;;;-1.00;100.00
61014;BME280;46899;47.542;19.082;2023-12-20T07:08:24;100318.53;;;-1.06;100.00
61014;BME280;46899;47.542;19.082;2023-12-20T07:11:27;100317.47;;;-1.22;100.00
61014;BME280;46899;47.542;19.082;2023-12-20T07:14:29;100309.03;;;-1.18;100.00
61014;BME280;46899;47.542;19.082;2023-12-20T07:17:33;100311.66;;;-1.13;100.00
61014;BME280;46899;47.542;19.082;2023-12-20T07:20:36;100300.53;;;-1.18;100.00
61014;BME280;46899;47.542;19.082;2023-12-20T07:23:39;100308.22;;;-1.14;100.00
61014;BME280;46899;47.542;19.082;2023-12-20T07:26:41;100301.37;;;-1.18;100.00
61014;BME280;46899;47.542;19.082;2023-12-20T07:29:44;100308.13;;;-1.21;100.00
61014;BME280;46899;47.542;19.082;2023-12-20T07:32:47;100306.41;;;-1.25;100.00
61014;BME280;46899;47.542;19.082;2023-12-20T07:35:50;100303.09;;;-1.15;100.00
61014;BME280;46899;47.542;19.082;2023-12-20T07:38:54;100313.47;;;-1.00;100.00
61014;BME280;46899;47.542;19.082;2023-12-20T07:41:57;100313.47;;;-1.00;100.00
61014;BME280;46899;47.542;19.082;2023-12-20T07:45:00;100316.91;;;-1.00;100.00
61014;BME280;46899;47.542;19.082;2023-12-20T07:48:03;100313.44;;;-1.05;100.00
61014;BME280;46899;47.542;19.082;2023-12-20T07:51:06;100306.66;;;-1.01;100.00
61014;BME280;46899;47.542;19.082;2023-12-20T07:54:10;100299.06;;;-0.97;100.00
61014;BME280;46899;47.542;19.082;2023-12-20T07:57:13;100296.59;;;-0.86;100.00
61014;BME280;46899;47.542;19.082;2023-12-20T08:00:16;100294.16;;;-0.74;100.00
61014;BME280;46899;47.542;19.082;2023-12-20T08:03:19;100295.81;;;-0.79;100.00
61014;BME280;46899;47.542;19.082;2023-12-20T08:06:21;100296.69;;;-0.80;100.00
61014;BME280;46899;47.542;19.082;2023-12-20T08:09:24;100293.41;;;-0.62;100.00
61014;BME280;46899;47.542;19.082;2023-12-20T08:12:26;100295.94;;;-0.68;100.00
61014;BME280;46899;47.542;19.082;2023-12-20T08:15:30;100287.44;;;-0.66;100.00
61014;BME280;46899;47.542;19.082;2023-12-20T08:18:32;100279.66;;;-0.78;100.00
61014;BME280;46899;47.542;19.082;2023-12-20T08:21:36;100279.62;;;-0.81;100.00
61014;BME280;46899;47.542;19.082;2023-12-20T08:24:40;100276.47;;;-0.51;100.00
61014;BME280;46899;47.542;19.082;2023-12-20T08:27:43;100290.03;;;-0.61;100.00
61014;BME280;46899;47.542;19.082;2023-12-20T08:30:46;100293.44;;;-0.61;100.00
61014;BME280;46899;47.542;19.082;2023-12-20T08:33:49;100287.38;;;-0.74;100.00
61014;BME280;46899;47.542;19.082;2023-12-20T08:36:52;100296.03;;;-0.56;100.00
61014;BME280;46899;47.542;19.082;2023-12-20T08:39:55;100295.28;;;-0.42;100.00
61014;BME280;46899;47.542;19.082;2023-12-20T08:42:58;100296.94;;;-0.50;100.00
61014;BME280;46899;47.542;19.082;2023-12-20T08:46:01;100299.66;;;-0.30;100.00
61014;BME280;46899;47.542;19.082;2023-12-20T08:49:03;100292.75;;;-0.42;100.00
61014;BME280;46899;47.542;19.082;2023-12-20T08:52:06;100302.09;;;-0.44;100.00
61014;BME280;46899;47.542;19.082;2023-12-20T08:55:09;100290.38;;;-0.18;100.00
61014;BME280;46899;47.542;19.082;2023-12-20T08:58:15;100298.16;;;-0.03;100.00
61014;BME280;46899;47.542;19.082;2023-12-20T09:01:19;100297.22;;;-0.14;100.00
61014;BME280;46899;47.542;19.082;2023-12-20T09:04:21;100302.31;;;-0.14;100.00
61014;BME280;46899;47.542;19.082;2023-12-20T09:07:25;100305.88;;;0.10;100.00
61014;BME280;46899;47.542;19.082;2023-12-20T09:10:27;100305.84;;;0.00;100.00
61014;BME280;46899;47.542;19.082;2023-12-20T09:13:30;100307.44;;;-0.17;100.00
61014;BME280;46899;47.542;19.082;2023-12-20T09:16:34;100300.59;;;-0.18;100.00
61014;BME280;46899;47.542;19.082;2023-12-20T09:19:37;100289.66;;;0.02;100.00
61014;BME280;46899;47.542;19.082;2023-12-20T09:22:41;100299.25;;;0.39;100.00
61014;BME280;46899;47.542;19.082;2023-12-20T09:25:44;100304.34;;;0.36;100.00
61014;BME280;46899;47.542;19.082;2023-12-20T09:28:50;100293.41;;;0.67;100.00
61014;BME280;46899;47.542;19.082;2023-12-20T09:31:52;100284.84;;;0.56;100.00
61014;BME280;46899;47.542;19.082;2023-12-20T09:34:55;100278.03;;;0.64;100.00
61014;BME280;46899;47.542;19.082;2023-12-20T09:37:58;100267.75;;;0.59;100.00
61014;BME280;46899;47.542;19.082;2023-12-20T09:41:01;100272.03;;;0.62;100.00
61014;BME280;46899;47.542;19.082;2023-12-20T09:44:06;100262.62;;;0.49;100.00
61014;BME280;46899;47.542;19.082;2023-12-20T09:47:11;100254.94;;;0.55;100.00
61014;BME280;46899;47.542;19.082;2023-12-20T09:50:14;100248.22;;;0.77;100.00
61014;BME280;46899;47.542;19.082;2023-12-20T09:53:17;100249.09;;;0.95;100.00
61014;BME280;46899;47.542;19.082;2023-12-20T09:56:20;100255.09;;;1.09;100.00
61014;BME280;46899;47.542;19.082;2023-12-20T09:59:23;100249.97;;;1.18;100.00
61014;BME280;46899;47.542;19.082;2023-12-20T10:02:26;100239.75;;;1.08;100.00
61014;BME280;46899;47.542;19.082;2023-12-20T10:05:30;100236.34;;;1.15;100.00
61014;BME280;46899;47.542;19.082;2023-12-20T10:08:34;100232.94;;;1.29;100.00
61014;BME280;46899;47.542;19.082;2023-12-20T10:11:38;100220.09;;;1.58;100.00
61014;BME280;46899;47.542;19.082;2023-12-20T10:14:41;100223.50;;;1.71;100.00
61014;BME280;46899;47.542;19.082;2023-12-20T10:17:44;100210.69;;;1.56;100.00
61014;BME280;46899;47.542;19.082;2023-12-20T10:20:46;100212.41;;;1.54;100.00
61014;BME280;46899;47.542;19.082;2023-12-20T10:23:49;100217.53;;;1.37;100.00
61014;BME280;46899;47.542;19.082;2023-12-20T10:27:02;100212.44;;;1.34;100.00
61014;BME280;46899;47.542;19.082;2023-12-20T10:30:06;100185.94;;;1.38;100.00
61014;BME280;46899;47.542;19.082;2023-12-20T10:33:09;100169.66;;;1.56;100.00
61014;BME280;46899;47.542;19.082;2023-12-20T10:36:13;100162.87;;;0.91;100.00
61014;BME280;46899;47.542;19.082;2023-12-20T10:39:16;100161.12;;;1.60;100.00
61014;BME280;46899;47.542;19.082;2023-12-20T10:42:20;100155.94;;;1.85;100.00
61014;BME280;46899;47.542;19.082;2023-12-20T10:45:23;100151.63;;;1.95;100.00
61014;BME280;46899;47.542;19.082;2023-12-20T10:48:26;100144.75;;;2.04;100.00
61014;BME280;46899;47.542;19.082;2023-12-20T10:51:32;100139.69;;;1.85;100.00
61014;BME280;46899;47.542;19.082;2023-12-20T10:54:36;100134.63;;;1.67;100.00
61014;BME280;46899;47.542;19.082;2023-12-20T10:57:39;100126.06;;;1.69;100.00
61014;BME280;46899;47.542;19.082;2023-12-20T11:00:41;100127.72;;;1.82;100.00
61014;BME280;46899;47.542;19.082;2023-12-20T11:06:54;100125.97;;;1.93;100.00
61014;BME280;46899;47.542;19.082;2023-12-20T11:10:03;100144.75;;;2.04;100.00
61014;BME280;46899;47.542;19.082;2023-12-20T11:13:16;100130.97;;;2.25;100.00
61014;BME280;46899;47.542;19.082;2023-12-20T11:16:20;100121.50;;;2.33;100.00
61014;BME280;46899;47.542;19.082;2023-12-20T11:19:25;100118.94;;;2.33;100.00
61014;BME280;46899;47.542;19.082;2023-12-20T11:22:30;100094.00;;;2.50;100.00
61014;BME280;46899;47.542;19.082;2023-12-20T11:25:48;100085.41;;;2.57;100.00
61014;BME280;46899;47.542;19.082;2023-12-20T11:28:51;100083.50;;;2.84;100.00
61014;BME280;46899;47.542;19.082;2023-12-20T11:31:54;100075.75;;;2.90;100.00
61014;BME280;46899;47.542;19.082;2023-12-20T11:38:13;100057.50;;;3.17;100.00
61014;BME280;46899;47.542;19.082;2023-12-20T11:41:15;100056.44;;;3.36;100.00
61014;BME280;46899;47.542;19.082;2023-12-20T11:44:19;100053.69;;;3.51;100.00
61014;BME280;46899;47.542;19.082;2023-12-20T11:47:22;100061.41;;;3.53;100.00
61014;BME280;46899;47.542;19.082;2023-12-20T11:50:25;100072.41;;;3.64;100.00
61014;BME280;46899;47.542;19.082;2023-12-20T11:53:29;100072.34;;;3.68;100.00
61014;BME280;46899;47.542;19.082;2023-12-20T11:56:33;100062.00;;;3.73;100.00
61014;BME280;46899;47.542;19.082;2023-12-20T11:59:36;100068.78;;;3.81;100.00
61014;BME280;46899;47.542;19.082;2023-12-20T12:02:39;100068.47;;;4.04;100.00
61014;BME280;46899;47.542;19.082;2023-12-20T12:05:41;100054.37;;;4.29;100.00
61014;BME280;46899;47.542;19.082;2023-12-20T12:08:44;100053.78;;;4.70;100.00
61014;BME280;46899;47.542;19.082;2023-12-20T12:11:46;100043.84;;;4.98;100.00
61014;BME280;46899;47.542;19.082;2023-12-20T12:14:49;100035.47;;;5.32;100.00
61014;BME280;46899;47.542;19.082;2023-12-20T12:17:55;100039.81;;;5.73;100.00
61014;BME280;46899;47.542;19.082;2023-12-20T12:21:01;100019.50;;;5.99;100.00
61014;BME280;46899;47.542;19.082;2023-12-20T12:24:14;100025.53;;;6.00;100.00
61014;BME280;46899;47.542;19.082;2023-12-20T12:27:16;100039.00;;;6.14;100.00
61014;BME280;46899;47.542;19.082;2023-12-20T12:30:19;100038.19;;;6.12;100.00
61014;BME280;46899;47.542;19.082;2023-12-20T12:33:21;100035.22;;;6.27;100.00
61014;BME280;46899;47.542;19.082;2023-12-20T12:36:24;100036.94;;;6.28;100.00
61014;BME280;46899;47.542;19.082;2023-12-20T12:39:27;100035.38;;;6.21;100.00
61014;BME280;46899;47.542;19.082;2023-12-20T12:42:30;100045.84;;;6.15;100.00
61014;BME280;46899;47.542;19.082;2023-12-20T12:45:33;100032.31;;;6.04;100.00
61014;BME280;46899;47.542;19.082;2023-12-20T12:48:35;100043.44;;;6.07;100.00
61014;BME280;46899;47.542;19.082;2023-12-20T12:51:38;100048.81;;;5.97;100.00
61014;BME280;46899;47.542;19.082;2023-12-20T12:54:41;100042.91;;;5.92;100.00
61014;BME280;46899;47.542;19.082;2023-12-20T12:57:45;100048.91;;;5.92;100.00
61014;BME280;46899;47.542;19.082;2023-12-20T13:00:48;100042.84;;;5.95;100.00
61014;BME280;46899;47.542;19.082;2023-12-20T13:03:51;100042.91;;;5.92;100.00
61014;BME280;46899;47.542;19.082;2023-12-20T13:06:54;100050.66;;;5.92;100.00
61014;BME280;46899;47.542;19.082;2023-12-20T13:09:57;100036.97;;;5.88;100.00
61014;BME280;46899;47.542;19.082;2023-12-20T13:13:00;100043.25;;;5.74;100.00
61014;BME280;46899;47.542;19.082;2023-12-20T13:16:03;100039.91;;;5.69;100.00
61014;BME280;46899;47.542;19.082;2023-12-20T13:19:07;100044.41;;;5.59;100.00
61014;BME280;46899;47.542;19.082;2023-12-20T13:22:09;100042.78;;;5.55;100.00
61014;BME280;46899;47.542;19.082;2023-12-20T13:25:12;100037.03;;;5.39;100.00
61014;BME280;46899;47.542;19.082;2023-12-20T13:28:15;100037.22;;;5.30;100.00
61014;BME280;46899;47.542;19.082;2023-12-20T13:31:19;100042.72;;;5.12;100.00
61014;BME280;46899;47.542;19.082;2023-12-20T13:34:23;100037.53;;;5.15;100.00
61014;BME280;46899;47.542;19.082;2023-12-20T13:37:26;100037.63;;;5.09;100.00
61014;BME280;46899;47.542;19.082;2023-12-20T13:40:28;100037.81;;;4.99;100.00
61014;BME280;46899;47.542;19.082;2023-12-20T13:43:32;100031.00;;;4.95;100.00
61014;BME280;46899;47.542;19.082;2023-12-20T13:46:35;100030.25;;;4.88;100.00
61014;BME280;46899;47.542;19.082;2023-12-20T13:49:38;100033.91;;;4.78;100.00
61014;BME280;46899;47.542;19.082;2023-12-20T13:52:41;100026.25;;;4.72;100.00
61014;BME280;46899;47.542;19.082;2023-12-20T13:55:44;100016.25;;;4.54;100.00
61014;BME280;46899;47.542;19.082;2023-12-20T13:58:46;100017.28;;;4.42;100.00
61014;BME280;46899;47.542;19.082;2023-12-20T14:01:49;100023.31;;;4.43;100.00
61014;BME280;46899;47.542;19.082;2023-12-20T14:04:53;100018.22;;;4.37;100.00
61014;BME280;46899;47.542;19.082;2023-12-20T14:07:55;100017.44;;;4.32;100.00
61014;BME280;46899;47.542;19.082;2023-12-20T14:11:01;100004.50;;;4.36;100.00
61014;BME280;46899;47.542;19.082;2023-12-20T14:14:04;100011.41;;;4.36;100.00
61014;BME280;46899;47.542;19.082;2023-12-20T14:17:07;100012.84;;;4.50;100.00
61014;BME280;46899;47.542;19.082;2023-12-20T14:20:10;100010.34;;;4.47;100.00
61014;BME280;46899;47.542;19.082;2023-12-20T14:23:15;100023.03;;;4.58;100.00
61014;BME280;46899;47.542;19.082;2023-12-20T14:26:18;100025.56;;;4.61;100.00
61014;BME280;46899;47.542;19.082;2023-12-20T14:29:21;100029.78;;;4.65;100.00
61014;BME280;46899;47.542;19.082;2023-12-20T14:32:26;100027.44;;;4.51;100.00
61014;BME280;46899;47.542;19.082;2023-12-20T14:35:30;100023.97;;;4.52;100.00
61014;BME280;46899;47.542;19.082;2023-12-20T14:38:33;100028.22;;;4.55;100.00
61014;BME280;46899;47.542;19.082;2023-12-20T14:41:36;100041.94;;;4.58;100.00
61014;BME280;46899;47.542;19.082;2023-12-20T14:44:41;100032.41;;;4.63;100.00
61014;BME280;46899;47.542;19.082;2023-12-20T14:47:44;100027.88;;;4.77;100.00
61014;BME280;46899;47.542;19.082;2023-12-20T14:50:48;100043.06;;;4.94;100.00
61014;BME280;46899;47.542;19.082;2023-12-20T14:53:51;100038.59;;;5.04;100.00
61014;BME280;46899;47.542;19.082;2023-12-20T14:56:54;100037.63;;;5.09;100.00
61014;BME280;46899;47.542;19.082;2023-12-20T14:59:56;100048.91;;;5.02;100.00
61014;BME280;46899;47.542;19.082;2023-12-20T15:02:59;100054.19;;;4.95;100.00
61014;BME280;46899;47.542;19.082;2023-12-20T15:06:02;100064.50;;;4.96;100.00
61014;BME280;46899;47.542;19.082;2023-12-20T15:09:05;100078.31;;;4.92;100.00
61014;BME280;46899;47.542;19.082;2023-12-20T15:12:08;100064.75;;;4.81;100.00
61014;BME280;46899;47.542;19.082;2023-12-20T15:15:11;100075.28;;;4.67;100.00
61014;BME280;46899;47.542;19.082;2023-12-20T15:18:14;100076.44;;;4.50;100.00
61014;BME280;46899;47.542;19.082;2023-12-20T15:21:17;100075.78;;;4.36;100.00
61014;BME280;46899;47.542;19.082;2023-12-20T15:24:20;100089.66;;;4.26;100.00
61014;BME280;46899;47.542;19.082;2023-12-20T15:27:29;100090.63;;;4.15;100.00
61014;BME280;46899;47.542;19.082;2023-12-20T15:30:32;100100.09;;;4.13;100.00
61014;BME280;46899;47.542;19.082;2023-12-20T15:33:35;100098.44;;;4.08;100.00
61014;BME280;46899;47.542;19.082;2023-12-20T15:36:38;100097.56;;;4.10;100.00
61014;BME280;46899;47.542;19.082;2023-12-20T15:39:41;100101.81;;;4.13;100.00
61014;BME280;46899;47.542;19.082;2023-12-20T15:42:45;100108.66;;;4.15;100.00